Time;durP1;ratioP1;P1;durP2;ratioP2;P2;SDS_P1;SDS_P2;PMS_P1;PMS_P2;Temp;Humidity;BMP_temperature;BMP_pressure;BME280_temperature;BME280_humidity;BME280_pressure;Samples;Min_cycle;Max_cycle;Signal;HPM_P1;HPM_P2
2023/01/21 00:00:43;;;;;;;43.47;22.35;;;0.10;99.90;;;;;;5088366;28;20462;-79
2023/01/21 00:03:09;;;;;;;40.90;21.80;;;0.10;99.90;;;;;;5089529;28;20410;-79
2023/01/21 00:05:34;;;;;;;43.50;22.00;;;0.00;99.90;;;;;;5088559;28;20394;-78
2023/01/21 00:08:00;;;;;;;42.47;21.60;;;0.00;99.90;;;;;;5087713;28;20409;-78
2023/01/21 00:10:26;;;;;;;44.30;22.27;;;-0.10;99.90;;;;;;5089495;28;20923;-79
2023/01/21 00:12:51;;;;;;;44.43;22.00;;;-0.10;99.90;;;;;;5089101;28;20406;-79
2023/01/21 00:15:17;;;;;;;45.42;22.20;;;-0.10;99.90;;;;;;5087818;28;20470;-79
2023/01/21 00:17:42;;;;;;;46.00;23.27;;;-0.10;99.90;;;;;;5088899;28;20406;-79
2023/01/21 00:20:09;;;;;;;46.67;23.20;;;-0.10;99.90;;;;;;5070630;28;20409;-78
2023/01/21 00:22:35;;;;;;;46.15;22.65;;;-0.20;99.90;;;;;;5087622;28;20402;-79
2023/01/21 00:25:01;;;;;;;45.97;23.30;;;-0.20;99.90;;;;;;5087920;28;20409;-78
2023/01/21 00:27:27;;;;;;;47.78;23.95;;;-0.20;99.90;;;;;;5069018;28;20426;-79
2023/01/21 00:29:52;;;;;;;48.70;24.03;;;-0.20;99.90;;;;;;5089308;28;20780;-79
2023/01/21 00:32:18;;;;;;;50.33;23.57;;;-0.20;99.90;;;;;;5087965;28;20878;-79
2023/01/21 00:34:44;;;;;;;51.83;24.40;;;-0.30;99.90;;;;;;5070713;28;20424;-79
2023/01/21 00:37:10;;;;;;;48.25;23.48;;;-0.30;99.90;;;;;;5087359;28;20798;-78
2023/01/21 00:39:41;;;;;;;51.10;24.65;;;-0.30;99.90;;;;;;5087565;28;20463;-79
2023/01/21 00:42:07;;;;;;;49.55;23.33;;;-0.30;99.90;;;;;;5087562;28;20915;-78
2023/01/21 00:44:33;;;;;;;52.83;24.77;;;-0.30;99.90;;;;;;5087654;28;20406;-79
2023/01/21 00:46:59;;;;;;;49.20;25.00;;;-0.30;99.90;;;;;;5087623;28;20464;-79
2023/01/21 00:49:24;;;;;;;55.13;26.23;;;-0.30;99.90;;;;;;5088701;28;20408;-79
2023/01/21 00:51:50;;;;;;;51.27;25.40;;;-0.40;99.90;;;;;;5080204;28;20442;-79
2023/01/21 00:54:15;;;;;;;50.33;24.90;;;-0.40;99.90;;;;;;5081330;28;20455;-78
2023/01/21 00:56:41;;;;;;;52.05;23.90;;;-0.40;99.90;;;;;;5087242;28;20583;-79
2023/01/21 00:59:07;;;;;;;52.67;25.40;;;-0.40;99.90;;;;;;5087233;28;20464;-79
2023/01/21 01:01:36;;;;;;;49.97;24.88;;;-0.40;99.90;;;;;;5087127;28;20400;-78
2023/01/21 01:04:04;;;;;;;48.72;24.98;;;-0.40;99.90;;;;;;5088598;28;20398;-78
2023/01/21 01:06:30;;;;;;;50.03;25.13;;;-0.40;99.90;;;;;;5068130;28;20752;-78
2023/01/21 01:08:59;;;;;;;51.92;24.92;;;-0.40;99.90;;;;;;5092273;28;20398;-79
2023/01/21 01:11:25;;;;;;;47.63;23.70;;;-0.50;99.90;;;;;;5075982;28;20980;-78
2023/01/21 01:13:52;;;;;;;49.78;23.60;;;-0.50;99.90;;;;;;5095716;28;20414;-79
2023/01/21 01:16:19;;;;;;;49.78;25.05;;;-0.50;99.90;;;;;;5070718;28;20858;-78
2023/01/21 01:18:45;;;;;;;53.50;25.35;;;-0.60;99.90;;;;;;5092928;28;20492;-78
2023/01/21 01:21:13;;;;;;;50.50;24.83;;;-0.60;99.90;;;;;;5089452;28;20489;-79
2023/01/21 01:23:39;;;;;;;51.95;24.73;;;-0.60;99.90;;;;;;5089468;28;20410;-79
2023/01/21 01:26:08;;;;;;;54.38;25.88;;;-0.50;99.90;;;;;;5098184;28;20400;-79
2023/01/21 01:28:34;;;;;;;54.08;24.88;;;-0.60;99.90;;;;;;5095953;28;20398;-78
2023/01/21 01:31:02;;;;;;;50.67;24.08;;;-0.60;99.90;;;;;;5086595;28;20817;-79
2023/01/21 01:33:27;;;;;;;54.80;26.10;;;-0.60;99.90;;;;;;5100099;28;20408;-79
2023/01/21 01:35:53;;;;;;;54.35;24.75;;;-0.60;99.90;;;;;;5100649;28;20443;-79
2023/01/21 01:38:21;;;;;;;53.00;23.83;;;-0.60;99.90;;;;;;5099079;28;20404;-79
2023/01/21 01:40:48;;;;;;;51.33;24.67;;;-0.60;99.90;;;;;;5077013;28;20440;-78
2023/01/21 01:43:19;;;;;;;56.83;24.17;;;-0.60;99.90;;;;;;5069681;28;21178;-79
2023/01/21 01:45:47;;;;;;;49.65;23.38;;;-0.60;99.90;;;;;;5071058;28;20764;-78
2023/01/21 01:48:21;;;;;;;51.78;24.08;;;-0.60;99.90;;;;;;5076408;28;20394;-79
2023/01/21 01:50:48;;;;;;;53.28;24.95;;;-0.60;99.90;;;;;;5060128;28;20446;-79
2023/01/21 01:53:15;;;;;;;55.53;24.08;;;-0.60;99.90;;;;;;5098108;28;20432;-79
2023/01/21 01:55:41;;;;;;;50.90;22.83;;;-0.60;99.90;;;;;;5106395;28;20516;-78
2023/01/21 01:58:12;;;;;;;53.05;24.25;;;-0.60;99.90;;;;;;5092241;28;20493;-79
2023/01/21 02:00:38;;;;;;;52.95;23.85;;;-0.60;99.90;;;;;;5079391;28;20926;-79
2023/01/21 02:05:49;;;;;;;48.80;21.38;;;-0.60;99.90;;;;;;5085038;28;20408;-79
2023/01/21 02:08:16;;;;;;;51.33;22.77;;;-0.70;99.90;;;;;;5089936;28;20416;-79
2023/01/21 02:10:41;;;;;;;50.97;22.77;;;-0.70;99.90;;;;;;5083693;28;20707;-78
2023/01/21 02:13:07;;;;;;;47.30;23.23;;;-0.70;99.90;;;;;;5077970;28;20399;-79
2023/01/21 02:15:48;;;;;;;47.43;22.07;;;-0.70;99.90;;;;;;5073159;28;20876;-79
2023/01/21 02:18:24;;;;;;;50.40;22.55;;;-0.70;99.90;;;;;;5088583;28;20496;-79
2023/01/21 02:20:52;;;;;;;50.58;22.80;;;-0.70;99.90;;;;;;5089124;28;20414;-79
2023/01/21 02:23:36;;;;;;;54.47;23.90;;;-0.70;99.90;;;;;;5089028;28;20514;-79
2023/01/21 02:26:14;;;;;;;48.42;23.20;;;-0.70;99.90;;;;;;5089236;28;20414;-79
2023/01/21 02:29:04;;;;;;;52.42;23.35;;;-0.70;99.90;;;;;;5087868;28;20422;-78
2023/01/21 02:31:45;;;;;;;49.90;23.13;;;-0.70;99.90;;;;;;5089217;28;20446;-79
2023/01/21 02:34:34;;;;;;;51.13;23.55;;;-0.70;99.90;;;;;;5076923;28;20406;-78
2023/01/21 02:37:07;;;;;;;52.37;23.70;;;-0.70;99.90;;;;;;5088413;28;20916;-78
2023/01/21 02:39:59;;;;;;;48.70;23.13;;;-0.70;99.90;;;;;;5088441;28;20456;-79
2023/01/21 02:42:49;;;;;;;53.40;22.63;;;-0.70;99.90;;;;;;5062163;28;20633;-78
2023/01/21 02:45:30;;;;;;;49.33;22.60;;;-0.80;99.90;;;;;;5076261;28;20774;-78
2023/01/21 02:48:05;;;;;;;44.83;21.52;;;-0.80;99.90;;;;;;5076911;28;20476;-79
2023/01/21 02:50:43;;;;;;;48.80;22.45;;;-0.80;99.90;;;;;;5089234;28;20412;-79
2023/01/21 02:53:27;;;;;;;51.05;23.05;;;-0.80;99.90;;;;;;5089470;28;20437;-78
2023/01/21 02:55:54;;;;;;;47.03;21.45;;;-0.90;99.90;;;;;;5072456;28;20434;-79
2023/01/21 02:58:29;;;;;;;46.45;22.10;;;-0.90;99.90;;;;;;5088988;28;20406;-78
2023/01/21 03:01:34;;;;;;;44.40;21.30;;;-0.90;99.90;;;;;;5077888;28;20787;-78
2023/01/21 03:04:15;;;;;;;47.22;22.13;;;-0.90;99.90;;;;;;5089726;28;20420;-78
2023/01/21 03:07:02;;;;;;;50.23;22.20;;;-0.90;99.90;;;;;;5080327;28;20430;-78
2023/01/21 03:09:30;;;;;;;48.63;22.65;;;-0.90;99.90;;;;;;5071479;28;20522;-78
2023/01/21 03:11:59;;;;;;;46.90;22.80;;;-0.90;99.90;;;;;;5089163;28;20462;-78
2023/01/21 03:17:33;;;;;;;50.08;22.50;;;-0.90;99.90;;;;;;5083892;28;20410;-78
2023/01/21 03:20:12;;;;;;;51.38;23.20;;;-0.90;99.90;;;;;;5071856;28;20463;-79
2023/01/21 03:22:39;;;;;;;53.83;23.50;;;-0.90;99.90;;;;;;5102017;28;20611;-78
2023/01/21 03:25:07;;;;;;;51.13;22.48;;;-0.80;99.90;;;;;;5097970;28;20912;-78
2023/01/21 03:27:37;;;;;;;60.75;24.13;;;-0.70;99.90;;;;;;5108744;28;20404;-79
2023/01/21 03:30:13;;;;;;;54.03;22.50;;;-0.70;99.90;;;;;;5108271;28;20407;-79
2023/01/21 03:32:42;;;;;;;54.45;23.73;;;-0.60;99.90;;;;;;5091882;28;20401;-78
2023/01/21 03:35:09;;;;;;;52.58;22.70;;;-0.60;99.90;;;;;;5089547;28;20818;-78
2023/01/21 03:38:02;;;;;;;56.75;24.13;;;-0.50;99.90;;;;;;5073672;28;20556;-79
2023/01/21 03:40:33;;;;;;;50.25;23.05;;;-0.50;99.90;;;;;;5081080;28;20438;-78
2023/01/21 03:42:59;;;;;;;53.17;23.77;;;-0.50;99.90;;;;;;5084012;28;20400;-78
2023/01/21 03:45:33;;;;;;;45.90;22.58;;;-0.60;99.90;;;;;;5088338;28;20413;-78
2023/01/21 03:48:12;;;;;;;49.80;22.43;;;-0.60;99.90;;;;;;5088023;28;20398;-79
2023/01/21 03:50:43;;;;;;;49.63;22.97;;;-0.60;99.90;;;;;;5088332;28;20489;-78
2023/01/21 03:53:09;;;;;;;52.30;23.58;;;-0.60;99.90;;;;;;5088402;28;20478;-78
2023/01/21 03:55:35;;;;;;;52.08;22.95;;;-0.60;99.90;;;;;;5071287;28;20441;-79
2023/01/21 03:58:01;;;;;;;48.78;22.55;;;-0.70;99.90;;;;;;5088239;28;20445;-78
2023/01/21 04:00:26;;;;;;;52.53;23.47;;;-0.70;99.90;;;;;;5088583;28;20432;-78
2023/01/21 04:02:52;;;;;;;52.00;23.53;;;-0.60;99.90;;;;;;5089186;28;20749;-78
2023/01/21 04:05:18;;;;;;;51.72;22.95;;;-0.60;99.90;;;;;;5088492;28;20408;-78
2023/01/21 04:07:43;;;;;;;50.13;23.00;;;-0.50;99.90;;;;;;5089014;28;20410;-78
2023/01/21 04:10:10;;;;;;;50.27;23.13;;;-0.50;99.90;;;;;;5089040;28;20435;-78
2023/01/21 04:12:35;;;;;;;52.38;23.10;;;-0.50;99.90;;;;;;5088790;28;20410;-78
2023/01/21 04:15:01;;;;;;;50.23;23.80;;;-0.40;99.90;;;;;;5059806;28;20805;-78
2023/01/21 04:17:27;;;;;;;52.30;23.15;;;-0.40;99.90;;;;;;5085857;28;20406;-78
2023/01/21 04:19:53;;;;;;;48.88;23.50;;;-0.30;99.90;;;;;;5082425;28;20400;-78
2023/01/21 04:22:19;;;;;;;52.38;24.17;;;-0.30;99.90;;;;;;5089102;28;20776;-78
2023/01/21 04:24:45;;;;;;;50.75;22.83;;;-0.20;99.90;;;;;;5088146;28;20489;-78
2023/01/21 04:27:11;;;;;;;53.38;23.38;;;-0.20;99.90;;;;;;5077925;28;20893;-78
2023/01/21 04:29:36;;;;;;;50.95;22.33;;;-0.20;99.90;;;;;;5077780;28;20396;-78
2023/01/21 04:32:03;;;;;;;50.28;23.42;;;-0.20;99.90;;;;;;5074337;28;20745;-78
2023/01/21 04:34:28;;;;;;;49.80;24.27;;;-0.20;99.90;;;;;;5082714;28;20468;-78
2023/01/21 04:36:54;;;;;;;50.92;23.15;;;-0.20;99.90;;;;;;5078650;28;20441;-78
2023/01/21 04:39:19;;;;;;;54.47;23.97;;;-0.20;99.90;;;;;;5088113;28;20852;-78
2023/01/21 04:41:45;;;;;;;53.90;23.95;;;-0.20;99.90;;;;;;5088916;28;20952;-79
2023/01/21 04:44:11;;;;;;;51.03;23.50;;;-0.10;99.90;;;;;;5073846;28;20482;-78
2023/01/21 04:46:36;;;;;;;55.67;24.80;;;-0.10;99.90;;;;;;5087168;28;20409;-78
2023/01/21 04:49:02;;;;;;;56.92;24.73;;;-0.10;99.90;;;;;;5089208;28;20913;-78
2023/01/21 04:51:27;;;;;;;53.50;23.57;;;-0.20;99.90;;;;;;5089559;28;20398;-78
2023/01/21 04:53:53;;;;;;;58.13;24.80;;;-0.20;99.90;;;;;;5089359;28;20451;-78
2023/01/21 04:56:19;;;;;;;52.35;24.33;;;-0.20;99.90;;;;;;5087206;28;20846;-78
2023/01/21 04:58:44;;;;;;;49.60;24.13;;;-0.30;99.90;;;;;;5086636;28;20972;-78
2023/01/21 05:01:10;;;;;;;51.83;24.10;;;-0.30;99.90;;;;;;5073552;28;20431;-78
2023/01/21 05:03:35;;;;;;;51.50;23.13;;;-0.30;99.90;;;;;;5093887;28;20460;-78
2023/01/21 05:06:01;;;;;;;54.47;24.47;;;-0.30;99.90;;;;;;5106409;28;20457;-78
2023/01/21 05:08:27;;;;;;;56.07;23.43;;;-0.40;99.90;;;;;;5099605;28;20955;-78
2023/01/21 05:10:52;;;;;;;54.38;24.63;;;-0.40;99.90;;;;;;5085307;28;20485;-78
2023/01/21 05:13:18;;;;;;;55.37;24.40;;;-0.40;99.90;;;;;;5085874;28;21148;-79
2023/01/21 05:15:43;;;;;;;49.40;22.95;;;-0.40;99.90;;;;;;5085923;28;20457;-78
2023/01/21 05:18:09;;;;;;;48.30;22.90;;;-0.40;99.90;;;;;;5085563;28;20499;-78
2023/01/21 05:20:35;;;;;;;50.83;22.87;;;-0.50;99.90;;;;;;5069167;28;20402;-78
2023/01/21 05:23:00;;;;;;;52.97;23.85;;;-0.60;99.90;;;;;;5086321;28;20838;-78
2023/01/21 05:25:26;;;;;;;54.83;24.50;;;-0.60;99.90;;;;;;5087411;28;20398;-78
2023/01/21 05:27:53;;;;;;;49.20;23.07;;;-0.70;99.90;;;;;;5085744;28;20412;-78
2023/01/21 05:30:19;;;;;;;50.10;23.45;;;-0.60;99.90;;;;;;5086595;28;20406;-78
2023/01/21 05:32:52;;;;;;;47.53;22.13;;;-0.70;99.90;;;;;;5086282;28;20413;-78
2023/01/21 05:35:19;;;;;;;48.85;23.73;;;-0.70;99.90;;;;;;5072700;28;20438;-78
2023/01/21 05:37:46;;;;;;;48.17;22.95;;;-0.80;99.90;;;;;;5086146;28;20840;-78
2023/01/21 05:40:16;;;;;;;48.30;23.20;;;-0.80;99.90;;;;;;5085180;28;20410;-78
2023/01/21 05:42:42;;;;;;;48.50;22.97;;;-0.80;99.90;;;;;;5085865;28;20401;-78
2023/01/21 05:45:10;;;;;;;47.42;23.42;;;-0.80;99.90;;;;;;5089088;28;20799;-78
2023/01/21 05:47:36;;;;;;;47.67;23.13;;;-0.90;99.90;;;;;;5090170;28;20491;-78
2023/01/21 05:50:02;;;;;;;45.90;22.77;;;-0.90;99.90;;;;;;5090585;28;20401;-78
2023/01/21 05:52:28;;;;;;;44.47;22.48;;;-0.90;99.90;;;;;;5089816;28;20409;-78
2023/01/21 05:54:53;;;;;;;46.95;23.05;;;-0.90;99.90;;;;;;5089172;28;20424;-78
2023/01/21 05:57:19;;;;;;;47.43;23.03;;;-1.00;99.90;;;;;;5089468;28;20907;-78
2023/01/21 05:59:44;;;;;;;45.60;22.03;;;-0.90;99.90;;;;;;5090556;28;20535;-78
2023/01/21 06:02:10;;;;;;;45.97;22.95;;;-1.00;99.90;;;;;;5090298;28;20490;-78
2023/01/21 06:04:36;;;;;;;44.63;22.40;;;-1.00;99.90;;;;;;5092421;28;20402;-78
2023/01/21 06:07:01;;;;;;;46.93;22.80;;;-1.00;99.90;;;;;;5090008;28;20406;-78
2023/01/21 06:09:27;;;;;;;46.55;23.15;;;-1.00;99.90;;;;;;5090771;28;20432;-78
2023/01/21 06:11:52;;;;;;;45.87;22.60;;;-1.00;99.90;;;;;;5089566;28;20452;-78
2023/01/21 06:14:18;;;;;;;49.92;24.70;;;-1.00;99.90;;;;;;5090420;28;20760;-78
2023/01/21 06:16:43;;;;;;;47.73;24.20;;;-1.00;99.90;;;;;;5073090;28;20406;-77
2023/01/21 06:19:09;;;;;;;49.07;23.73;;;-1.00;99.90;;;;;;5090805;28;20417;-78
2023/01/21 06:21:35;;;;;;;46.78;22.83;;;-1.00;99.90;;;;;;5090622;28;20394;-78
2023/01/21 06:24:01;;;;;;;48.10;24.30;;;-0.90;99.90;;;;;;5089584;28;20406;-78
2023/01/21 06:26:27;;;;;;;47.80;24.02;;;-1.00;99.90;;;;;;5089747;28;20413;-77
2023/01/21 06:28:55;;;;;;;47.55;23.63;;;-0.90;99.90;;;;;;5089092;28;20476;-78
2023/01/21 06:31:21;;;;;;;50.47;23.88;;;-1.00;99.90;;;;;;5089338;28;20439;-78
2023/01/21 06:33:47;;;;;;;46.90;23.63;;;-1.00;99.90;;;;;;5088042;28;20412;-78
2023/01/21 06:36:12;;;;;;;49.17;24.50;;;-1.00;99.90;;;;;;5075979;28;20513;-78
2023/01/21 06:38:38;;;;;;;48.55;23.85;;;-1.00;99.90;;;;;;5089174;28;20806;-77
2023/01/21 06:41:04;;;;;;;47.83;23.73;;;-1.00;99.90;;;;;;5089038;28;20398;-78
2023/01/21 06:43:30;;;;;;;46.85;23.73;;;-1.00;99.90;;;;;;5089226;28;20406;-77
2023/01/21 06:45:55;;;;;;;46.88;23.10;;;-1.10;99.90;;;;;;5089170;28;20402;-78
2023/01/21 06:48:21;;;;;;;46.57;23.73;;;-1.10;99.90;;;;;;5089065;28;20497;-77
2023/01/21 06:50:46;;;;;;;48.23;24.37;;;-1.10;99.90;;;;;;5090683;28;20395;-77
2023/01/21 06:53:12;;;;;;;49.80;24.38;;;-1.10;99.90;;;;;;5089035;28;20405;-77
2023/01/21 06:55:37;;;;;;;51.80;24.97;;;-1.10;99.90;;;;;;5088751;28;20430;-77
2023/01/21 06:58:03;;;;;;;49.95;24.80;;;-1.00;99.90;;;;;;5089096;28;20969;-78
2023/01/21 07:00:29;;;;;;;51.30;25.05;;;-1.00;99.90;;;;;;5096377;28;20392;-77
2023/01/21 07:02:58;;;;;;;50.85;24.70;;;-1.00;99.90;;;;;;5094943;28;20442;-77
2023/01/21 07:05:25;;;;;;;51.50;25.15;;;-1.00;99.90;;;;;;5077074;28;20410;-78
2023/01/21 07:07:55;;;;;;;45.05;23.80;;;-1.00;99.90;;;;;;5088631;28;20447;-78
2023/01/21 07:10:21;;;;;;;50.92;24.73;;;-0.90;99.90;;;;;;5089360;28;20501;-78
2023/01/21 07:12:47;;;;;;;47.88;24.00;;;-0.90;99.90;;;;;;5088762;28;20462;-78
2023/01/21 07:15:12;;;;;;;50.33;24.58;;;-1.00;99.90;;;;;;5088677;28;20822;-77
2023/01/21 07:17:38;;;;;;;48.30;24.00;;;-1.00;99.90;;;;;;5089584;28;20409;-78
2023/01/21 07:20:05;;;;;;;48.90;24.03;;;-1.00;99.90;;;;;;5088765;28;20406;-78
2023/01/21 07:22:33;;;;;;;47.03;24.13;;;-1.00;99.90;;;;;;5072586;28;20485;-78
2023/01/21 07:24:59;;;;;;;54.13;25.40;;;-1.00;99.90;;;;;;5090187;28;20482;-77
2023/01/21 07:27:25;;;;;;;50.20;25.73;;;-1.10;99.90;;;;;;5091510;28;20938;-77
2023/01/21 07:29:50;;;;;;;52.35;26.45;;;-1.00;99.90;;;;;;5090554;28;20419;-77
2023/01/21 07:32:16;;;;;;;60.73;29.97;;;-1.00;99.90;;;;;;5090067;28;20410;-77
2023/01/21 07:34:41;;;;;;;60.17;31.20;;;-0.90;99.90;;;;;;5079706;28;20423;-77
2023/01/21 07:37:07;;;;;;;57.35;29.88;;;-0.90;99.90;;;;;;5083718;28;20493;-77
2023/01/21 07:39:33;;;;;;;54.30;27.90;;;-0.90;99.90;;;;;;5088321;28;20409;-77
2023/01/21 07:41:58;;;;;;;54.80;27.40;;;-0.90;99.90;;;;;;5088446;28;20467;-78
2023/01/21 07:44:24;;;;;;;50.22;25.42;;;-0.90;99.90;;;;;;5083981;28;20418;-79
2023/01/21 07:46:50;;;;;;;48.30;25.27;;;-0.90;99.90;;;;;;5086072;28;21242;-78
2023/01/21 07:49:18;;;;;;;48.58;25.77;;;-0.90;99.90;;;;;;5058873;28;20398;-78
2023/01/21 07:51:45;;;;;;;52.35;26.73;;;-0.90;99.90;;;;;;5083293;28;20473;-78
2023/01/21 07:54:11;;;;;;;48.33;25.43;;;-0.80;99.90;;;;;;5086856;28;20490;-78
2023/01/21 07:56:37;;;;;;;50.47;25.60;;;-0.80;99.90;;;;;;5061623;28;20433;-78
2023/01/21 07:59:03;;;;;;;47.90;25.17;;;-0.80;99.90;;;;;;5085275;28;20404;-78
2023/01/21 08:01:30;;;;;;;49.33;25.17;;;-0.80;99.90;;;;;;5078834;28;20506;-79
2023/01/21 08:03:59;;;;;;;48.80;25.00;;;-0.90;99.90;;;;;;5079407;28;20447;-79
2023/01/21 08:06:25;;;;;;;48.43;25.57;;;-0.80;99.90;;;;;;5053917;28;20402;-78
2023/01/21 08:08:51;;;;;;;52.92;26.60;;;-0.80;99.90;;;;;;5081861;28;20409;-79
2023/01/21 08:11:17;;;;;;;50.07;26.60;;;-0.80;99.90;;;;;;5088829;28;20432;-78
2023/01/21 08:13:43;;;;;;;52.50;28.08;;;-0.80;99.90;;;;;;5080970;28;20403;-78
2023/01/21 08:16:12;;;;;;;46.55;25.67;;;-0.70;99.90;;;;;;5074588;28;20489;-79
2023/01/21 08:18:38;;;;;;;48.83;25.55;;;-0.70;99.90;;;;;;5061872;28;20402;-78
2023/01/21 08:21:04;;;;;;;46.13;25.63;;;-0.70;99.90;;;;;;5077934;28;20449;-78
2023/01/21 08:23:30;;;;;;;47.37;25.67;;;-0.70;99.90;;;;;;5081695;28;20889;-80
2023/01/21 08:25:56;;;;;;;48.58;26.00;;;-0.60;99.90;;;;;;5080572;28;20409;-78
2023/01/21 08:28:22;;;;;;;61.83;34.27;;;-0.60;99.90;;;;;;5073570;28;20406;-78
2023/01/21 08:30:48;;;;;;;60.97;32.07;;;-0.60;99.90;;;;;;5090353;28;20457;-78
2023/01/21 08:33:13;;;;;;;54.47;30.30;;;-0.60;99.90;;;;;;5092514;28;20485;-78
2023/01/21 08:35:39;;;;;;;54.78;29.17;;;-0.60;99.90;;;;;;5088260;28;20430;-77
2023/01/21 08:38:05;;;;;;;56.92;29.95;;;-0.60;99.90;;;;;;5087144;28;20440;-78
2023/01/21 08:40:30;;;;;;;54.80;29.30;;;-0.60;99.90;;;;;;5087458;28;20509;-77
2023/01/21 08:43:01;;;;;;;55.47;29.50;;;-0.60;99.90;;;;;;5087773;28;20416;-78
2023/01/21 08:45:27;;;;;;;52.15;28.20;;;-0.50;99.90;;;;;;5074548;28;20799;-77
2023/01/21 08:47:53;;;;;;;52.83;27.30;;;-0.50;99.90;;;;;;5087624;28;20406;-77
2023/01/21 08:50:20;;;;;;;52.42;28.60;;;-0.50;99.90;;;;;;5087756;28;20951;-78
2023/01/21 08:52:52;;;;;;;54.33;27.37;;;-0.40;99.90;;;;;;5087665;28;20825;-78
2023/01/21 08:55:19;;;;;;;51.13;26.87;;;-0.40;99.90;;;;;;5088430;28;20479;-78
2023/01/21 08:57:44;;;;;;;53.78;28.35;;;-0.30;99.90;;;;;;5088882;28;20783;-77
2023/01/21 09:00:11;;;;;;;53.03;29.37;;;-0.30;99.90;;;;;;5075526;28;20401;-77
2023/01/21 09:02:36;;;;;;;53.75;28.38;;;-0.20;99.90;;;;;;5087453;28;20398;-77
2023/01/21 09:05:02;;;;;;;52.30;28.33;;;-0.20;99.90;;;;;;5072281;28;20402;-77
2023/01/21 09:07:28;;;;;;;67.67;35.50;;;0.00;99.90;;;;;;5089554;28;20455;-77
2023/01/21 09:09:53;;;;;;;67.00;34.22;;;0.00;99.90;;;;;;5088927;28;20386;-77
2023/01/21 09:12:19;;;;;;;56.87;29.53;;;0.10;99.90;;;;;;5087797;28;20767;-78
2023/01/21 09:14:44;;;;;;;58.22;29.13;;;0.10;99.90;;;;;;5087665;28;20409;-78
2023/01/21 09:17:10;;;;;;;60.07;29.07;;;0.20;99.90;;;;;;5079909;28;20960;-78
2023/01/21 09:19:35;;;;;;;61.97;29.33;;;0.30;99.90;;;;;;5089021;28;20409;-78
2023/01/21 09:22:01;;;;;;;60.40;30.08;;;0.40;99.90;;;;;;5087718;28;20422;-78
2023/01/21 09:24:27;;;;;;;65.43;33.47;;;0.60;99.90;;;;;;5090297;28;20816;-78
2023/01/21 09:26:52;;;;;;;63.38;35.08;;;0.70;99.90;;;;;;5070757;28;20421;-78
2023/01/21 09:29:18;;;;;;;69.38;35.78;;;0.80;99.90;;;;;;5091031;28;20843;-78
2023/01/21 09:31:43;;;;;;;61.37;31.07;;;0.80;99.90;;;;;;5088374;28;20449;-77
2023/01/21 09:34:10;;;;;;;55.97;28.38;;;0.80;99.90;;;;;;5088902;28;20386;-78
2023/01/21 09:36:37;;;;;;;55.90;28.83;;;0.80;99.90;;;;;;5086305;28;20436;-79
2023/01/21 09:39:03;;;;;;;56.13;28.83;;;0.80;99.90;;;;;;5093636;28;20413;-78
2023/01/21 09:41:36;;;;;;;57.97;28.33;;;0.80;99.90;;;;;;5101219;28;20495;-78
2023/01/21 09:44:11;;;;;;;54.25;29.00;;;0.70;99.90;;;;;;5092672;28;20909;-78
2023/01/21 09:47:02;;;;;;;58.00;29.57;;;0.70;99.90;;;;;;5102150;28;20484;-79
2023/01/21 09:49:35;;;;;;;54.90;29.13;;;0.70;99.90;;;;;;5086007;28;20471;-78
2023/01/21 09:52:05;;;;;;;56.47;28.65;;;0.70;99.90;;;;;;5088570;28;20426;-78
2023/01/21 09:54:32;;;;;;;57.92;29.88;;;0.70;99.90;;;;;;5097837;28;20412;-79
2023/01/21 09:57:30;;;;;;;58.22;31.65;;;0.80;99.90;;;;;;5086247;28;20418;-78
2023/01/21 09:59:56;;;;;;;55.40;30.33;;;0.70;99.90;;;;;;5086493;28;20418;-78
2023/01/21 10:02:30;;;;;;;53.83;30.33;;;0.80;99.90;;;;;;5087232;28;20418;-78
2023/01/21 10:05:31;;;;;;;52.78;29.95;;;0.80;99.90;;;;;;5087801;28;20934;-78
2023/01/21 10:08:20;;;;;;;57.45;30.38;;;0.90;99.90;;;;;;5079499;28;20426;-78
2023/01/21 10:11:19;;;;;;;48.47;27.77;;;0.90;99.90;;;;;;5086095;28;20414;-79
2023/01/21 10:14:09;;;;;;;45.97;25.83;;;1.00;99.90;;;;;;5082947;28;20422;-78
2023/01/21 10:16:53;;;;;;;33.53;21.10;;;1.10;99.90;;;;;;5084121;28;20429;-79
2023/01/21 10:19:27;;;;;;;27.45;17.13;;;1.20;99.90;;;;;;5087349;28;20493;-78
2023/01/21 10:21:57;;;;;;;22.27;14.53;;;1.20;99.90;;;;;;5077042;28;20430;-79
2023/01/21 10:24:39;;;;;;;21.10;13.40;;;1.40;99.90;;;;;;5087206;28;20422;-79
2023/01/21 10:27:09;;;;;;;20.45;14.23;;;1.40;99.90;;;;;;5080259;28;20429;-78
2023/01/21 10:29:40;;;;;;;19.05;13.18;;;1.50;99.90;;;;;;5084766;28;20417;-79
2023/01/21 10:32:13;;;;;;;19.92;13.43;;;1.60;99.90;;;;;;5090420;28;20486;-79
2023/01/21 10:34:53;;;;;;;20.23;13.15;;;1.60;99.90;;;;;;5082987;28;20402;-78
2023/01/21 10:37:41;;;;;;;20.08;13.30;;;1.70;99.90;;;;;;5086791;28;20398;-78
2023/01/21 10:43:17;;;;;;;17.73;12.40;;;1.80;99.90;;;;;;5084923;28;20843;-78
2023/01/21 10:46:02;;;;;;;17.95;11.95;;;1.90;99.90;;;;;;5090139;28;20756;-78
2023/01/21 10:48:48;;;;;;;17.73;12.65;;;1.90;99.90;;;;;;5090410;28;20426;-78
2023/01/21 10:51:36;;;;;;;15.20;10.60;;;3.00;99.90;;;;;;5094389;28;20939;-79
2023/01/21 10:54:13;;;;;;;14.30;9.95;;;4.40;99.90;;;;;;5095998;28;20968;-79
2023/01/21 10:57:11;;;;;;;13.60;9.80;;;5.70;99.90;;;;;;5089751;28;20479;-79
2023/01/21 10:59:38;;;;;;;18.27;13.02;;;6.50;99.90;;;;;;5086576;28;20418;-79
2023/01/21 11:02:26;;;;;;;15.02;10.57;;;6.60;99.90;;;;;;5087667;28;20402;-79
2023/01/21 11:04:53;;;;;;;13.55;9.98;;;6.40;99.90;;;;;;5087861;28;21020;-79
2023/01/21 11:07:20;;;;;;;19.23;14.73;;;6.50;99.90;;;;;;5088399;28;20923;-79
2023/01/21 11:09:47;;;;;;;14.10;11.40;;;6.50;99.90;;;;;;5088820;28;20444;-79
2023/01/21 11:12:17;;;;;;;12.30;9.10;;;6.50;99.90;;;;;;5086487;28;20491;-79
2023/01/21 11:14:53;;;;;;;13.83;11.30;;;6.50;99.90;;;;;;5089553;28;20449;-79
2023/01/21 11:17:35;;;;;;;11.98;9.40;;;6.20;99.90;;;;;;5085848;28;20942;-79
2023/01/21 11:20:17;;;;;;;12.10;8.95;;;5.80;99.90;;;;;;5086723;28;20414;-79
2023/01/21 11:22:44;;;;;;;13.52;9.25;;;5.50;99.90;;;;;;5089070;28;20428;-79
2023/01/21 11:25:40;;;;;;;11.37;8.50;;;5.70;99.90;;;;;;5071777;28;20422;-79
2023/01/21 11:28:22;;;;;;;10.23;7.97;;;6.70;99.90;;;;;;5089260;28;21095;-80
2023/01/21 11:30:48;;;;;;;10.38;7.10;;;8.10;99.90;;;;;;5087173;28;20452;-80
2023/01/21 11:33:25;;;;;;;9.73;7.60;;;9.20;99.90;;;;;;5079563;28;20397;-80
2023/01/21 11:35:53;;;;;;;9.77;7.05;;;9.90;99.90;;;;;;5088485;28;20474;-80
2023/01/21 11:38:33;;;;;;;10.52;8.23;;;10.20;99.90;;;;;;5087981;28;20410;-80
2023/01/21 11:41:11;;;;;;;9.38;7.20;;;10.20;99.90;;;;;;5075825;28;20794;-80
2023/01/21 11:43:44;;;;;;;11.20;7.82;;;10.50;99.90;;;;;;5085572;28;20495;-80
2023/01/21 11:46:20;;;;;;;9.35;6.85;;;11.10;99.90;;;;;;5088641;28;20435;-79
2023/01/21 11:48:46;;;;;;;9.03;6.40;;;11.20;99.90;;;;;;5087660;28;20787;-79
2023/01/21 11:51:12;;;;;;;9.55;6.45;;;10.60;99.90;;;;;;5086585;28;20424;-79
2023/01/21 11:53:39;;;;;;;8.70;6.38;;;9.70;99.90;;;;;;5086390;28;20780;-78
2023/01/21 11:56:05;;;;;;;8.75;6.03;;;8.80;99.90;;;;;;5086644;28;20461;-79
2023/01/21 11:58:34;;;;;;;7.93;6.22;;;8.00;99.90;;;;;;5095496;28;20821;-79
2023/01/21 12:01:03;;;;;;;8.85;6.65;;;7.40;99.90;;;;;;5088168;28;20409;-79
2023/01/21 12:03:31;;;;;;;9.63;6.80;;;6.80;99.90;;;;;;5105508;28;20465;-79
2023/01/21 12:05:58;;;;;;;16.33;13.30;;;6.40;99.90;;;;;;5095758;28;20745;-79
2023/01/21 12:08:34;;;;;;;11.60;8.57;;;6.00;99.90;;;;;;5105354;28;20748;-79
2023/01/21 12:11:01;;;;;;;9.20;7.90;;;5.70;99.90;;;;;;5100903;28;20397;-79
2023/01/21 12:13:39;;;;;;;9.00;6.73;;;5.40;99.90;;;;;;5096673;28;20549;-79
2023/01/21 12:16:11;;;;;;;9.82;7.35;;;5.30;99.90;;;;;;5066861;28;20442;-79
2023/01/21 12:19:23;;;;;;;8.40;6.70;;;5.20;99.90;;;;;;5087624;28;20429;-79
2023/01/21 12:22:30;;;;;;;7.93;6.05;;;5.20;99.90;;;;;;5070099;28;20414;-79
2023/01/21 12:25:13;;;;;;;8.60;7.07;;;5.30;99.90;;;;;;5083516;28;20407;-79
2023/01/21 12:27:58;;;;;;;8.60;6.25;;;5.60;99.90;;;;;;5089196;28;20416;-79
2023/01/21 12:30:42;;;;;;;7.07;5.90;;;5.70;99.90;;;;;;5068632;28;20939;-79
2023/01/21 12:33:24;;;;;;;6.13;5.05;;;5.70;99.90;;;;;;5088628;28;20434;-79
2023/01/21 12:35:53;;;;;;;5.68;4.60;;;5.80;99.90;;;;;;5093790;28;20424;-79
2023/01/21 12:38:34;;;;;;;5.00;4.05;;;5.90;99.90;;;;;;5084525;28;20962;-79
2023/01/21 12:41:19;;;;;;;5.68;3.42;;;5.80;99.90;;;;;;5099640;28;20432;-79
2023/01/21 12:43:49;;;;;;;4.90;3.88;;;5.70;99.90;;;;;;5069590;28;20410;-79
2023/01/21 12:46:38;;;;;;;3.17;2.13;;;5.80;99.90;;;;;;5071701;28;20470;-79
2023/01/21 12:49:14;;;;;;;3.15;2.15;;;5.80;99.90;;;;;;5084880;28;20421;-79
2023/01/21 12:51:47;;;;;;;3.63;2.75;;;5.80;99.90;;;;;;5086395;28;20437;-79
2023/01/21 12:54:38;;;;;;;8.18;6.13;;;5.70;99.90;;;;;;5077116;28;20421;-79
2023/01/21 12:57:13;;;;;;;6.57;5.18;;;5.70;99.90;;;;;;5079683;28;20418;-79